Time;durP1;ratioP1;P1;durP2;ratioP2;P2;SDS_P1;SDS_P2;PMS_P1;PMS_P2;Temp;Humidity;BMP_temperature;BMP_pressure;BME280_temperature;BME280_humidity;BME280_pressure;Samples;Min_cycle;Max_cycle;Signal;HPM_P1;HPM_P2
2023/09/24 00:01:16;;;;;;;4.00;2.00;;;;;;;10.65;100.00;97305.72;5043769;28;20204;-56
2023/09/24 00:03:44;;;;;;;5.77;2.00;;;;;;;10.58;100.00;97307.22;5042834;28;20191;-55
2023/09/24 00:06:11;;;;;;;2.83;1.80;;;;;;;10.54;100.00;97305.78;5042341;28;20673;-55
2023/09/24 00:08:38;;;;;;;3.27;1.80;;;;;;;10.52;100.00;97310.38;5042756;28;20203;-55
2023/09/24 00:11:04;;;;;;;2.70;1.93;;;;;;;10.53;100.00;97303.25;5042650;28;20195;-55
2023/09/24 00:13:33;;;;;;;2.80;1.43;;;;;;;10.53;100.00;97306.72;5041772;28;20228;-54
2023/09/24 00:16:04;;;;;;;2.83;1.60;;;;;;;10.55;100.00;97306.63;5042687;28;20203;-56
2023/09/24 00:18:32;;;;;;;2.37;1.23;;;;;;;10.51;100.00;97306.03;5041389;28;20640;-55
2023/09/24 00:20:59;;;;;;;2.03;1.80;;;;;;;10.46;100.00;97309.03;5042278;28;20199;-55
2023/09/24 00:23:25;;;;;;;3.00;1.83;;;;;;;10.43;100.00;97301.38;5041712;28;20212;-55
2023/09/24 00:25:52;;;;;;;1.90;1.80;;;;;;;10.45;100.00;97306.53;5042761;28;20199;-55
2023/09/24 00:28:18;;;;;;;1.73;1.60;;;;;;;10.53;100.00;97305.88;5041553;28;20738;-55
2023/09/24 00:30:45;;;;;;;2.83;1.60;;;;;;;10.53;100.00;97305.88;5042756;28;20538;-55
2023/09/24 00:33:11;;;;;;;4.47;1.80;;;;;;;10.50;100.00;97304.34;5041114;28;20684;-56
2023/09/24 00:35:41;;;;;;;3.03;1.43;;;;;;;10.41;100.00;97308.59;5042288;28;20218;-55
2023/09/24 00:38:08;;;;;;;1.80;1.70;;;;;;;10.39;100.00;97312.31;5042097;28;20203;-56
2023/09/24 00:40:35;;;;;;;2.00;1.73;;;;;;;10.32;100.00;97308.50;5042816;28;20216;-56
2023/09/24 00:43:01;;;;;;;2.40;2.03;;;;;;;10.39;100.00;97317.59;5041847;28;20644;-56
2023/09/24 00:45:28;;;;;;;2.50;1.97;;;;;;;10.38;100.00;97315.94;5042190;28;20609;-56
2023/09/24 00:47:56;;;;;;;2.33;2.13;;;;;;;10.36;100.00;97313.41;5041897;28;20208;-54
2023/09/24 00:50:24;;;;;;;2.33;1.63;;;;;;;10.40;100.00;97314.84;5041593;28;20211;-54
2023/09/24 00:52:53;;;;;;;2.27;1.60;;;;;;;10.31;100.00;97320.03;5041823;28;20217;-55
2023/09/24 00:55:20;;;;;;;2.00;1.43;;;;;;;10.27;100.00;97316.78;5042036;28;20211;-55
2023/09/24 00:57:48;;;;;;;1.77;1.67;;;;;;;10.27;100.00;97329.19;5041700;28;20203;-55
2023/09/24 01:00:18;;;;;;;1.70;1.43;;;;;;;10.29;100.00;97316.69;5041129;28;20207;-56
2023/09/24 01:02:46;;;;;;;4.67;1.63;;;;;;;10.18;100.00;97319.34;5040044;28;20219;-54
2023/09/24 01:05:14;;;;;;;2.33;1.60;;;;;;;10.20;100.00;97323.53;5042332;28;20290;-56
2023/09/24 01:07:41;;;;;;;1.83;1.70;;;;;;;10.13;100.00;97330.25;5041526;28;20265;-55
2023/09/24 01:10:11;;;;;;;3.80;2.07;;;;;;;10.15;100.00;97341.59;5044780;28;20207;-54
2023/09/24 01:12:39;;;;;;;2.27;1.50;;;;;;;10.18;100.00;97340.50;5045885;28;20261;-55
2023/09/24 01:15:13;;;;;;;1.87;1.77;;;;;;;10.16;100.00;97337.16;5045655;28;20306;-54
2023/09/24 01:17:40;;;;;;;3.23;1.47;;;;;;;10.06;100.00;97341.47;5046146;28;20632;-55
2023/09/24 01:20:12;;;;;;;1.63;1.07;;;;;;;9.97;100.00;97343.88;5046011;28;20196;-55
2023/09/24 01:22:40;;;;;;;3.03;1.53;;;;;;;9.98;100.00;97348.19;5046138;28;20199;-55
2023/09/24 01:25:07;;;;;;;2.30;1.40;;;;;;;10.00;100.00;97350.69;5045710;28;20604;-55
2023/09/24 01:27:36;;;;;;;1.87;1.43;;;;;;;9.98;100.00;97350.84;5045363;28;20914;-54
2023/09/24 01:30:05;;;;;;;2.60;1.50;;;;;;;9.97;100.00;97346.50;5045886;28;20285;-55
2023/09/24 01:32:32;;;;;;;2.87;2.00;;;;;;;10.02;100.00;97351.44;5045725;28;20652;-54
2023/09/24 01:35:01;;;;;;;4.07;1.33;;;;;;;9.96;100.00;97351.91;5045360;28;20231;-54
2023/09/24 01:37:28;;;;;;;3.37;1.57;;;;;;;9.89;100.00;97354.19;5046010;28;20289;-56
2023/09/24 01:39:56;;;;;;;2.43;1.40;;;;;;;9.93;100.00;97347.72;5045899;28;20211;-56
2023/09/24 01:42:22;;;;;;;3.30;1.40;;;;;;;9.87;100.00;97342.09;5045218;28;20511;-55
2023/09/24 01:44:50;;;;;;;3.00;1.30;;;;;;;9.92;100.00;97350.47;5045868;28;20203;-54
2023/09/24 01:47:16;;;;;;;2.70;1.10;;;;;;;9.82;100.00;97341.59;5045265;28;20203;-55
2023/09/24 01:49:45;;;;;;;3.60;1.30;;;;;;;9.81;100.00;97339.94;5044985;28;20196;-55
2023/09/24 01:52:12;;;;;;;1.53;1.20;;;;;;;9.86;100.00;97340.38;5044952;28;20199;-57
2023/09/24 01:54:39;;;;;;;2.03;1.50;;;;;;;9.88;100.00;97336.66;5045193;28;20319;-55
2023/09/24 01:57:07;;;;;;;1.67;1.10;;;;;;;9.85;100.00;97342.19;5045369;28;20267;-56
2023/09/24 01:59:33;;;;;;;2.10;1.67;;;;;;;9.94;100.00;97344.13;5046911;28;20195;-55
2023/09/24 02:02:00;;;;;;;5.17;1.40;;;;;;;9.95;100.00;97339.69;5047570;28;20243;-56
2023/09/24 02:04:27;;;;;;;3.90;1.50;;;;;;;9.93;100.00;97331.84;5049127;28;20200;-56
2023/09/24 02:06:53;;;;;;;1.60;1.30;;;;;;;9.91;100.00;97339.09;5055472;28;20215;-55
2023/09/24 02:09:20;;;;;;;1.87;1.50;;;;;;;9.87;100.00;97335.00;5056486;28;20226;-55
2023/09/24 02:11:47;;;;;;;2.63;1.60;;;;;;;9.89;100.00;97335.72;5057228;28;20215;-54
2023/09/24 02:14:15;;;;;;;1.20;1.20;;;;;;;9.94;100.00;97333.56;5045945;28;20242;-55
2023/09/24 02:16:42;;;;;;;2.83;1.80;;;;;;;9.94;100.00;97343.28;5044356;28;20309;-55
2023/09/24 02:19:09;;;;;;;1.57;1.47;;;;;;;9.94;100.00;97338.00;5045283;28;20218;-54
2023/09/24 02:21:36;;;;;;;1.60;1.50;;;;;;;9.93;100.00;97342.44;5044871;28;20536;-55
2023/09/24 02:24:02;;;;;;;1.67;1.27;;;;;;;9.94;100.00;97341.47;5044154;28;20203;-56
2023/09/24 02:26:30;;;;;;;4.40;2.27;;;;;;;9.98;100.00;97345.56;5044799;28;20223;-56
2023/09/24 02:28:56;;;;;;;4.13;1.70;;;;;;;10.02;100.00;97345.31;5044711;28;20302;-55
2023/09/24 02:31:24;;;;;;;2.03;1.93;;;;;;;9.94;100.00;97353.84;5044772;28;20219;-55
2023/09/24 02:33:50;;;;;;;2.00;1.90;;;;;;;9.88;100.00;97355.16;5043933;28;20227;-55
2023/09/24 02:36:17;;;;;;;2.73;1.87;;;;;;;9.95;100.00;97351.06;5044507;28;20223;-55
2023/09/24 02:38:44;;;;;;;2.43;1.90;;;;;;;9.94;100.00;97352.03;5044008;28;20761;-56
2023/09/24 02:41:11;;;;;;;2.63;1.90;;;;;;;9.93;100.00;97357.44;5044124;28;20207;-56
2023/09/24 02:43:38;;;;;;;2.37;2.17;;;;;;;9.84;100.00;97359.03;5044064;28;20200;-56
2023/09/24 02:46:05;;;;;;;3.13;2.13;;;;;;;9.86;100.00;97354.44;5044261;28;20234;-56
2023/09/24 02:48:35;;;;;;;2.50;2.30;;;;;;;9.84;100.00;97350.25;5043957;28;20203;-55
2023/09/24 02:51:08;;;;;;;5.80;2.97;;;;;;;9.78;100.00;97348.91;5044013;28;20257;-55
2023/09/24 02:53:34;;;;;;;2.47;2.00;;;;;;;9.80;100.00;97348.81;5044228;28;20505;-56
2023/09/24 02:56:01;;;;;;;2.23;2.07;;;;;;;9.81;100.00;97353.94;5043799;28;20664;-55
2023/09/24 02:58:27;;;;;;;2.40;2.27;;;;;;;9.83;100.00;97362.63;5044023;28;20249;-55
2023/09/24 03:00:54;;;;;;;2.13;2.03;;;;;;;9.84;100.00;97359.03;5044272;28;20196;-55
2023/09/24 03:03:20;;;;;;;3.80;2.53;;;;;;;9.80;100.00;97360.22;5043610;28;20210;-55
2023/09/24 03:05:48;;;;;;;2.57;2.37;;;;;;;9.77;100.00;97367.53;5043935;28;20199;-55
2023/09/24 03:08:16;;;;;;;2.37;2.17;;;;;;;9.74;100.00;97363.31;5043066;28;20927;-56
2023/09/24 03:10:43;;;;;;;2.70;2.50;;;;;;;9.75;100.00;97356.25;5043892;28;20203;-55
2023/09/24 03:13:09;;;;;;;2.57;2.37;;;;;;;9.72;100.00;97359.97;5043201;28;20207;-56
2023/09/24 03:15:36;;;;;;;3.00;2.80;;;;;;;9.70;100.00;97359.25;5044274;28;20227;-56
2023/09/24 03:18:03;;;;;;;2.77;2.50;;;;;;;9.67;100.00;97372.69;5042979;28;20195;-55
2023/09/24 03:20:30;;;;;;;2.43;2.30;;;;;;;9.64;100.00;97366.81;5043452;28;20203;-56
2023/09/24 03:23:02;;;;;;;2.80;2.53;;;;;;;9.63;100.00;97373.91;5042816;28;20211;-55
2023/09/24 03:25:29;;;;;;;4.70;2.70;;;;;;;9.65;100.00;97373.78;5043226;28;20195;-55
2023/09/24 03:27:57;;;;;;;3.13;2.70;;;;;;;9.68;100.00;97381.44;5042945;28;20242;-56
2023/09/24 03:30:24;;;;;;;2.90;2.70;;;;;;;9.70;100.00;97383.03;5043171;28;20233;-56
2023/09/24 03:32:51;;;;;;;3.40;3.10;;;;;;;9.68;100.00;97379.66;5042928;28;20546;-55
2023/09/24 03:35:23;;;;;;;3.27;3.07;;;;;;;9.64;100.00;97388.78;5043444;28;20326;-55
2023/09/24 03:37:50;;;;;;;5.50;2.90;;;;;;;9.56;100.00;97385.91;5043026;28;20243;-56
2023/09/24 03:40:20;;;;;;;4.03;2.90;;;;;;;9.53;100.00;97385.31;5043887;28;20207;-56
2023/09/24 03:42:47;;;;;;;3.20;3.00;;;;;;;9.55;100.00;97388.66;5043017;28;20270;-56
2023/09/24 03:45:14;;;;;;;3.47;2.93;;;;;;;9.60;100.00;97389.97;5042168;28;20207;-56
2023/09/24 03:47:41;;;;;;;5.63;2.80;;;;;;;9.59;100.00;97385.66;5043340;28;20200;-56
2023/09/24 03:50:10;;;;;;;3.23;2.97;;;;;;;9.62;100.00;97382.78;5042884;28;20203;-56
2023/09/24 03:52:37;;;;;;;3.83;2.50;;;;;;;9.63;100.00;97386.28;5043687;28;20210;-55
2023/09/24 03:55:05;;;;;;;3.03;2.83;;;;;;;9.61;100.00;97389.00;5042266;28;20628;-56
2023/09/24 03:57:33;;;;;;;3.33;3.10;;;;;;;9.55;100.00;97386.84;5043489;28;20203;-55
2023/09/24 04:00:00;;;;;;;3.20;3.00;;;;;;;9.58;100.00;97394.53;5042583;28;20204;-54
2023/09/24 04:02:27;;;;;;;5.27;3.53;;;;;;;9.62;100.00;97396.00;5043776;28;20207;-55
2023/09/24 04:04:54;;;;;;;3.80;3.50;;;;;;;9.56;100.00;97401.75;5042509;28;20277;-55
2023/09/24 04:07:21;;;;;;;3.90;3.60;;;;;;;9.57;100.00;97406.06;5043055;28;20207;-55
2023/09/24 04:09:50;;;;;;;4.83;3.73;;;;;;;9.54;100.00;97403.66;5042448;28;20210;-55
2023/09/24 04:12:16;;;;;;;4.20;3.90;;;;;;;9.56;100.00;97403.56;5042729;28;20222;-56
2023/09/24 04:14:44;;;;;;;4.50;3.90;;;;;;;9.47;100.00;97403.28;5041987;28;20317;-55
2023/09/24 04:17:11;;;;;;;4.07;3.77;;;;;;;9.50;100.00;97402.19;5043284;28;20199;-56
2023/09/24 04:19:38;;;;;;;4.10;3.70;;;;;;;9.48;100.00;97404.13;5042350;28;20218;-56
2023/09/24 04:22:04;;;;;;;3.63;3.33;;;;;;;9.50;100.00;97418.03;5043037;28;20210;-55
2023/09/24 04:24:31;;;;;;;4.47;3.27;;;;;;;9.44;100.00;97403.53;5041464;28;20617;-56
2023/09/24 04:26:57;;;;;;;3.60;3.30;;;;;;;9.48;100.00;97406.78;5042398;28;20199;-55
2023/09/24 04:29:24;;;;;;;3.90;3.60;;;;;;;9.49;100.00;97405.81;5042026;28;20669;-55
2023/09/24 04:31:52;;;;;;;6.70;3.53;;;;;;;9.41;100.00;97397.66;5042290;28;20219;-56
2023/09/24 04:34:19;;;;;;;4.23;3.47;;;;;;;9.47;100.00;97411.22;5041870;28;20246;-56
2023/09/24 04:36:46;;;;;;;4.10;3.30;;;;;;;9.44;100.00;97402.69;5042566;28;20230;-56
2023/09/24 04:39:13;;;;;;;3.80;3.47;;;;;;;9.41;100.00;97403.78;5041508;28;20214;-55
2023/09/24 04:41:40;;;;;;;3.73;3.40;;;;;;;9.41;100.00;97410.84;5043074;28;20208;-56
2023/09/24 04:44:06;;;;;;;5.50;3.57;;;;;;;9.41;100.00;97413.47;5040854;28;20208;-56
2023/09/24 04:46:33;;;;;;;3.37;3.17;;;;;;;9.41;100.00;97421.41;5042153;28;20207;-55
2023/09/24 04:49:02;;;;;;;4.10;3.50;;;;;;;9.44;100.00;97415.88;5041448;28;20212;-57
2023/09/24 04:51:29;;;;;;;5.10;3.70;;;;;;;9.42;100.00;97421.25;5042501;28;20212;-56
2023/09/24 04:53:56;;;;;;;3.70;3.40;;;;;;;9.42;100.00;97426.53;5041796;28;20552;-57
2023/09/24 04:56:22;;;;;;;4.40;3.77;;;;;;;9.39;100.00;97431.22;5040864;28;20231;-55
2023/09/24 04:58:49;;;;;;;3.90;3.60;;;;;;;9.39;100.00;97433.84;5041608;28;20211;-55
2023/09/24 05:01:15;;;;;;;3.93;3.53;;;;;;;9.34;100.00;97439.50;5042432;28;20211;-55
2023/09/24 05:03:42;;;;;;;5.43;3.30;;;;;;;9.34;100.00;97438.66;5041747;28;20199;-55
2023/09/24 05:06:09;;;;;;;3.70;3.40;;;;;;;9.37;100.00;97441.06;5043159;28;20199;-56
2023/09/24 05:08:36;;;;;;;3.87;3.30;;;;;;;9.35;100.00;97440.34;5042455;28;20211;-56
2023/09/24 05:11:03;;;;;;;3.80;3.33;;;;;;;9.32;100.00;97436.13;5043195;28;20310;-54
2023/09/24 05:13:30;;;;;;;3.87;3.57;;;;;;;9.35;100.00;97435.88;5041573;28;20215;-56
2023/09/24 05:16:00;;;;;;;5.60;3.60;;;;;;;9.33;100.00;97442.25;5042981;28;20227;-57
2023/09/24 05:18:26;;;;;;;3.50;3.30;;;;;;;9.34;100.00;97441.31;5041968;28;20582;-56
2023/09/24 05:20:53;;;;;;;4.63;3.40;;;;;;;9.30;100.00;97445.13;5041659;28;20551;-56
2023/09/24 05:23:21;;;;;;;5.60;3.50;;;;;;;9.33;100.00;97442.25;5041209;28;20212;-55
2023/09/24 05:25:47;;;;;;;4.30;3.90;;;;;;;9.25;100.00;97450.75;5041847;28;20204;-55
2023/09/24 05:28:16;;;;;;;4.20;3.80;;;;;;;9.23;100.00;97450.03;5041060;28;20699;-55
2023/09/24 05:30:43;;;;;;;3.73;3.23;;;;;;;9.29;100.00;97451.34;5041950;28;20288;-56
2023/09/24 05:33:09;;;;;;;3.90;3.50;;;;;;;9.28;100.00;97450.50;5040673;28;20650;-56
2023/09/24 05:35:37;;;;;;;3.70;3.40;;;;;;;9.33;100.00;97452.81;5041850;28;20230;-55
2023/09/24 05:38:04;;;;;;;3.87;3.57;;;;;;;9.37;100.00;97448.97;5041712;28;20223;-56
2023/09/24 05:40:31;;;;;;;4.90;3.40;;;;;;;9.40;100.00;97454.03;5042112;28;20207;-56
2023/09/24 05:42:58;;;;;;;3.83;3.53;;;;;;;9.43;100.00;97451.16;5041694;28;20219;-56
2023/09/24 05:45:24;;;;;;;3.63;3.33;;;;;;;9.44;100.00;97461.59;5041597;28;20207;-56
2023/09/24 05:47:51;;;;;;;4.20;3.80;;;;;;;9.48;100.00;97460.41;5040167;28;20208;-56
2023/09/24 05:50:17;;;;;;;6.67;3.63;;;;;;;9.55;100.00;97458.16;5040657;28;20196;-57
2023/09/24 05:52:44;;;;;;;4.93;3.80;;;;;;;9.59;100.00;97456.97;5041904;28;20222;-55
2023/09/24 05:55:10;;;;;;;4.03;3.80;;;;;;;9.63;100.00;97466.34;5041781;28;20692;-56
2023/09/24 05:57:38;;;;;;;3.97;3.67;;;;;;;9.70;100.00;97472.84;5044629;28;20211;-56
2023/09/24 06:00:08;;;;;;;4.70;3.70;;;;;;;9.88;100.00;97466.13;5044658;28;20206;-56
2023/09/24 06:02:35;;;;;;;4.07;3.77;;;;;;;9.93;100.00;97471.91;5045111;28;20235;-56
2023/09/24 06:05:01;;;;;;;4.00;3.57;;;;;;;9.98;100.00;97477.69;5044782;28;20264;-56
2023/09/24 06:07:28;;;;;;;3.93;3.63;;;;;;;10.12;100.00;97467.81;5045482;28;20232;-57
2023/09/24 06:09:55;;;;;;;4.43;3.60;;;;;;;10.16;100.00;97477.22;5044867;28;20216;-54
2023/09/24 06:12:24;;;;;;;3.90;3.53;;;;;;;10.24;100.00;97473.00;5043349;28;20682;-57
2023/09/24 06:14:51;;;;;;;4.17;3.77;;;;;;;10.40;100.00;97486.72;5045437;28;20219;-56
2023/09/24 06:17:18;;;;;;;4.20;3.90;;;;;;;10.53;100.00;97483.09;5045506;28;20203;-56
2023/09/24 06:19:44;;;;;;;5.23;4.37;;;;;;;10.61;100.00;97481.50;5044763;28;20215;-60
2023/09/24 06:22:11;;;;;;;4.60;4.30;;;;;;;10.76;100.00;97477.66;5045935;28;20543;-57
2023/09/24 06:24:37;;;;;;;6.40;5.13;;;;;;;11.01;100.00;97479.16;5045537;28;20279;-59
2023/09/24 06:27:04;;;;;;;7.53;5.23;;;;;;;11.20;100.00;97483.75;5045035;28;20210;-57
2023/09/24 06:29:34;;;;;;;5.00;4.60;;;;;;;11.43;100.00;97480.91;5044735;28;20191;-55
2023/09/24 06:32:02;;;;;;;4.87;4.10;;;;;;;11.55;100.00;97486.94;5044436;28;20655;-56
2023/09/24 06:34:28;;;;;;;4.77;4.37;;;;;;;11.45;100.00;97484.25;5045558;28;20226;-56
2023/09/24 06:36:54;;;;;;;4.80;4.50;;;;;;;11.18;100.00;97488.34;5045520;28;20227;-56
2023/09/24 06:39:21;;;;;;;5.50;5.00;;;;;;;11.13;100.00;97495.81;5045653;28;20195;-56
2023/09/24 06:41:47;;;;;;;5.53;5.03;;;;;;;11.03;100.00;97492.22;5044861;28;20597;-54
2023/09/24 06:44:21;;;;;;;5.13;4.73;;;;;;;11.09;100.00;97489.91;5044640;28;20225;-56
2023/09/24 06:46:47;;;;;;;7.33;5.50;;;;;;;11.02;100.00;97498.50;5044856;28;20192;-56
2023/09/24 06:49:15;;;;;;;6.93;6.20;;;;;;;10.95;100.00;97499.00;5044152;28;20204;-54
2023/09/24 06:51:41;;;;;;;5.60;5.20;;;;;;;11.02;100.00;97495.88;5043234;28;21333;-56
2023/09/24 06:54:08;;;;;;;6.80;6.30;;;;;;;10.85;100.00;97492.78;5043119;28;20212;-55
2023/09/24 06:56:34;;;;;;;6.47;5.80;;;;;;;10.95;100.00;97491.06;5043282;28;20223;-54
2023/09/24 06:59:01;;;;;;;6.80;6.30;;;;;;;10.87;100.00;97493.50;5043490;28;20214;-57
2023/09/24 07:01:28;;;;;;;6.20;5.80;;;;;;;10.89;100.00;97490.72;5043039;28;20814;-56
2023/09/24 07:03:55;;;;;;;6.23;5.53;;;;;;;10.85;100.00;97497.22;5042951;28;20636;-56
2023/09/24 07:06:23;;;;;;;5.70;5.20;;;;;;;10.73;100.00;97509.66;5044040;28;20196;-56
2023/09/24 07:08:50;;;;;;;5.20;4.80;;;;;;;10.62;100.00;97512.31;5043467;28;20208;-55
2023/09/24 07:11:25;;;;;;;4.73;4.30;;;;;;;10.63;100.00;97506.03;5043068;28;20211;-56
2023/09/24 07:13:52;;;;;;;4.40;4.10;;;;;;;10.54;100.00;97517.34;5042945;28;20213;-56
2023/09/24 07:16:21;;;;;;;3.80;3.50;;;;;;;10.51;100.00;97522.88;5042801;28;20231;-56
2023/09/24 07:18:48;;;;;;;4.10;3.80;;;;;;;10.45;100.00;97523.38;5042633;28;20274;-55
2023/09/24 07:21:15;;;;;;;3.80;3.60;;;;;;;10.52;100.00;97524.59;5042428;28;20215;-56
2023/09/24 07:23:43;;;;;;;3.80;3.50;;;;;;;10.61;100.00;97529.13;5043109;28;20290;-56
2023/09/24 07:26:09;;;;;;;3.47;3.27;;;;;;;10.61;100.00;97528.28;5042690;28;21397;-56
2023/09/24 07:28:36;;;;;;;4.00;3.70;;;;;;;10.72;100.00;97526.47;5042868;28;20267;-56
2023/09/24 07:31:03;;;;;;;5.93;5.33;;;;;;;10.78;100.00;97525.97;5042392;28;20207;-56
2023/09/24 07:33:29;;;;;;;6.03;5.47;;;;;;;10.87;100.00;97522.59;5042813;28;20206;-56
2023/09/24 07:35:56;;;;;;;6.50;5.97;;;;;;;10.93;100.00;97526.56;5042527;28;20238;-55
2023/09/24 07:38:22;;;;;;;5.90;5.40;;;;;;;11.08;100.00;97521.84;5042799;28;20208;-55
2023/09/24 07:40:50;;;;;;;6.07;5.57;;;;;;;11.08;100.00;97527.13;5042998;28;20216;-56
2023/09/24 07:43:16;;;;;;;6.23;5.70;;;;;;;11.03;100.00;97534.59;5043153;28;20210;-56
2023/09/24 07:45:43;;;;;;;6.17;5.67;;;;;;;11.10;100.00;97541.91;5042109;28;20281;-54
2023/09/24 07:48:13;;;;;;;6.70;6.03;;;;;;;11.15;100.00;97534.44;5043723;28;20200;-56
2023/09/24 07:50:40;;;;;;;6.40;5.80;;;;;;;11.30;100.00;97532.34;5041646;28;20199;-56
2023/09/24 07:53:06;;;;;;;6.67;6.07;;;;;;;11.45;100.00;97526.63;5042288;28;20207;-55
2023/09/24 07:55:33;;;;;;;7.20;6.30;;;;;;;11.59;100.00;97533.41;5042481;28;20219;-56
2023/09/24 07:58:01;;;;;;;6.67;6.07;;;;;;;11.64;100.00;97533.03;5042711;28;20210;-56
2023/09/24 08:00:27;;;;;;;11.23;10.27;;;;;;;11.77;100.00;97534.56;5041903;28;21421;-57
2023/09/24 08:02:54;;;;;;;7.47;6.77;;;;;;;11.94;100.00;97533.97;5042025;28;20216;-55
2023/09/24 08:05:20;;;;;;;7.47;6.77;;;;;;;12.11;100.00;97531.72;5042135;28;20222;-56
2023/09/24 08:07:47;;;;;;;7.30;6.70;;;;;;;12.20;100.00;97529.13;5041611;28;20196;-56
2023/09/24 08:10:13;;;;;;;9.87;6.87;;;;;;;12.36;100.00;97526.00;5042466;28;20562;-56
2023/09/24 08:12:41;;;;;;;7.53;6.93;;;;;;;12.39;100.00;97526.59;5043068;28;20235;-56
2023/09/24 08:15:09;;;;;;;6.50;5.90;;;;;;;12.63;100.00;97534.22;5042811;28;20246;-56
2023/09/24 08:17:36;;;;;;;7.07;6.47;;;;;;;12.77;100.00;97523.22;5042796;28;20457;-56
2023/09/24 08:20:05;;;;;;;6.77;6.17;;;;;;;13.01;100.00;97533.47;5041178;28;20550;-56
2023/09/24 08:22:31;;;;;;;6.90;5.77;;;;;;;13.28;100.00;97532.88;5041694;28;20203;-56
2023/09/24 08:24:58;;;;;;;6.43;5.83;;;;;;;13.41;100.00;97534.28;5041650;28;20204;-56
2023/09/24 08:27:25;;;;;;;7.47;6.77;;;;;;;13.33;100.00;97530.63;5042081;28;20232;-55
2023/09/24 08:29:53;;;;;;;6.30;5.80;;;;;;;13.53;100.00;97529.69;5042439;28;20214;-56
2023/09/24 08:32:23;;;;;;;6.40;5.90;;;;;;;13.51;100.00;97530.78;5042532;28;20202;-54
2023/09/24 08:34:50;;;;;;;5.93;5.47;;;;;;;13.64;100.00;97526.84;5041831;28;20599;-56
2023/09/24 08:37:16;;;;;;;6.17;5.67;;;;;;;13.66;100.00;97521.41;5046906;28;20257;-55
2023/09/24 08:39:43;;;;;;;6.57;5.97;;;;;;;13.66;100.00;97518.75;5050077;28;20195;-57
2023/09/24 08:42:10;;;;;;;6.10;5.60;;;;;;;13.77;100.00;97522.13;5045213;28;20199;-56
2023/09/24 08:44:40;;;;;;;5.83;5.00;;;;;;;14.00;100.00;97519.13;5042919;28;20265;-56
2023/09/24 08:47:06;;;;;;;5.70;5.30;;;;;;;14.05;100.00;97511.56;5043076;28;20211;-56
2023/09/24 08:49:35;;;;;;;6.07;4.70;;;;;;;14.21;100.00;97511.78;5042139;28;20199;-57
2023/09/24 08:52:04;;;;;;;5.28;4.75;;;;;;;14.45;100.00;97514.84;5041456;28;20207;-54
2023/09/24 08:54:30;;;;;;;4.90;4.53;;;;;;;14.47;100.00;97517.34;5041964;28;20210;-57
2023/09/24 08:56:57;;;;;;;6.78;4.80;;;;;;;14.85;100.00;97506.53;5041439;28;20231;-56
2023/09/24 08:59:25;;;;;;;4.40;4.00;;;;;;;15.23;100.00;97505.47;5041284;28;20202;-55
2023/09/24 09:01:53;;;;;;;4.20;3.90;;;;;;;15.54;100.00;97504.13;5041585;28;20204;-57
2023/09/24 09:04:19;;;;;;;4.78;3.90;;;;;;;15.69;100.00;97507.09;5041158;28;20286;-55
2023/09/24 09:06:47;;;;;;;4.03;3.63;;;;;;;15.90;100.00;97510.28;5041107;28;20222;-56
2023/09/24 09:09:24;;;;;;;3.67;3.40;;;;;;;15.94;100.00;97501.78;5041919;28;20219;-54
2023/09/24 09:11:50;;;;;;;3.33;3.03;;;;;;;16.27;100.00;97500.19;5041618;28;20265;-55
2023/09/24 09:14:33;;;;;;;3.65;3.40;;;;;;;16.39;100.00;97500.75;5041793;28;20253;-56
2023/09/24 09:16:59;;;;;;;3.30;3.00;;;;;;;16.67;100.00;97488.94;5041711;28;20208;-56
2023/09/24 09:19:26;;;;;;;3.05;2.67;;;;;;;16.64;98.89;97499.09;5040099;28;20211;-56
2023/09/24 09:21:54;;;;;;;3.28;2.70;;;;;;;16.94;99.01;97495.84;5042508;28;20290;-57
2023/09/24 09:24:22;;;;;;;3.03;2.83;;;;;;;17.05;96.83;97492.06;5041425;28;20542;-57
2023/09/24 09:26:54;;;;;;;2.58;2.40;;;;;;;17.23;92.68;97501.63;5040835;28;20196;-55
2023/09/24 09:29:21;;;;;;;2.10;1.90;;;;;;;17.49;94.44;97490.00;5041530;28;20246;-56
2023/09/24 09:31:48;;;;;;;3.30;1.80;;;;;;;17.47;91.11;97490.13;5044928;28;20207;-56
2023/09/24 09:34:18;;;;;;;3.88;2.15;;;;;;;17.69;91.32;97486.00;5044630;28;20203;-57
2023/09/24 09:36:44;;;;;;;2.45;1.80;;;;;;;18.04;91.49;97485.66;5045001;28;20247;-55
2023/09/24 09:39:12;;;;;;;2.17;1.88;;;;;;;18.27;87.79;97483.13;5044298;28;20199;-54
2023/09/24 09:41:41;;;;;;;2.10;1.90;;;;;;;18.47;85.10;97487.09;5044826;28;20636;-56
2023/09/24 09:44:08;;;;;;;2.63;1.58;;;;;;;18.74;85.92;97489.38;5044561;28;20195;-57
2023/09/24 09:46:36;;;;;;;1.77;1.67;;;;;;;19.04;82.97;97481.53;5045435;28;20199;-57
2023/09/24 09:49:06;;;;;;;2.45;1.83;;;;;;;19.05;80.76;97478.69;5044528;28;20208;-57
2023/09/24 09:51:36;;;;;;;2.20;2.00;;;;;;;18.91;79.31;97484.81;5044538;28;20221;-56
2023/09/24 09:54:06;;;;;;;1.60;1.50;;;;;;;19.02;82.60;97478.22;5045005;28;20223;-56
2023/09/24 09:56:34;;;;;;;2.10;2.00;;;;;;;19.01;79.76;97479.22;5044140;28;20223;-55
2023/09/24 09:59:01;;;;;;;1.95;1.75;;;;;;;19.05;80.38;97480.53;5044568;28;20210;-56
2023/09/24 10:01:27;;;;;;;1.58;1.48;;;;;;;19.17;81.07;97479.13;5045085;28;20212;-56
2023/09/24 10:03:55;;;;;;;1.92;1.67;;;;;;;19.34;78.61;97478.03;5044325;28;20215;-57
2023/09/24 10:06:21;;;;;;;1.70;1.60;;;;;;;19.56;79.92;97469.16;5044310;28;20199;-56
2023/09/24 10:08:48;;;;;;;1.50;1.40;;;;;;;18.91;78.50;97473.25;5046059;28;20203;-55
2023/09/24 10:11:48;;;;;;;1.70;1.60;;;;;;;18.92;78.14;97472.25;5044963;28;20215;-56
2023/09/24 10:14:31;;;;;;;2.85;1.88;;;;;;;18.64;80.21;97471.81;5046440;28;20641;-56
2023/09/24 10:16:57;;;;;;;1.83;1.73;;;;;;;18.33;79.99;97459.19;5046001;28;20220;-56
2023/09/24 10:19:47;;;;;;;1.95;1.33;;;;;;;18.16;82.89;97467.41;5045960;28;20207;-56
2023/09/24 10:22:34;;;;;;;1.55;1.33;;;;;;;18.19;81.17;97469.75;5045531;28;20195;-56
2023/09/24 10:25:02;;;;;;;2.40;1.55;;;;;;;18.21;81.79;97465.88;5044870;28;20323;-55
2023/09/24 10:27:31;;;;;;;2.03;1.67;;;;;;;18.06;81.80;97467.63;5044332;28;20258;-56
2023/09/24 10:30:04;;;;;;;1.77;1.65;;;;;;;18.17;83.98;97458.41;5045879;28;20767;-57
2023/09/24 10:32:43;;;;;;;1.80;1.70;;;;;;;17.91;83.95;97474.66;5045409;28;20219;-55
2023/09/24 10:35:12;;;;;;;1.65;1.55;;;;;;;18.05;81.74;97471.28;5043411;28;20253;-57
2023/09/24 10:38:01;;;;;;;2.17;1.80;;;;;;;18.01;82.20;97455.72;5043695;28;20704;-55
2023/09/24 10:40:28;;;;;;;1.92;1.52;;;;;;;17.82;82.70;97457.75;5043944;28;20204;-55
2023/09/24 10:43:17;;;;;;;2.05;1.40;;;;;;;18.37;80.82;97452.47;5043534;28;20215;-55
2023/09/24 10:45:48;;;;;;;1.40;1.30;;;;;;;18.57;82.32;97444.91;5043581;28;20604;-55
2023/09/24 10:48:15;;;;;;;2.40;1.42;;;;;;;18.65;80.86;97447.56;5043907;28;20199;-57
2023/09/24 10:50:42;;;;;;;2.58;1.50;;;;;;;18.60;83.77;97444.53;5043760;28;20198;-55
2023/09/24 10:53:10;;;;;;;1.80;1.48;;;;;;;18.37;81.42;97439.09;5044325;28;20264;-57
2023/09/24 10:55:37;;;;;;;1.90;1.25;;;;;;;18.11;81.05;97443.81;5043528;28;20595;-57
2023/09/24 10:58:05;;;;;;;4.25;1.40;;;;;;;18.16;82.84;97437.97;5043215;28;20834;-56
2023/09/24 11:00:32;;;;;;;1.58;1.35;;;;;;;18.07;84.19;97441.66;5043352;28;20662;-56
2023/09/24 11:03:02;;;;;;;1.50;1.40;;;;;;;18.07;82.75;97430.94;5043955;28;20209;-55
2023/09/24 11:05:30;;;;;;;3.08;1.50;;;;;;;18.00;82.46;97435.31;5043246;28;20265;-56
2023/09/24 11:07:56;;;;;;;1.63;1.52;;;;;;;17.97;81.77;97430.31;5043083;28;20546;-56
2023/09/24 11:10:24;;;;;;;2.38;1.60;;;;;;;17.81;82.53;97436.53;5043853;28;20206;-56
2023/09/24 11:12:52;;;;;;;1.90;1.30;;;;;;;17.91;84.60;97431.84;5043226;28;20537;-56
2023/09/24 11:15:19;;;;;;;2.92;1.50;;;;;;;18.45;81.83;97424.84;5043423;28;20211;-56
2023/09/24 11:17:47;;;;;;;1.77;1.10;;;;;;;18.92;77.77;97424.81;5043784;28;20301;-57
2023/09/24 11:20:17;;;;;;;1.52;1.30;;;;;;;19.15;72.48;97422.16;5043765;28;20590;-56
2023/09/24 11:22:44;;;;;;;1.30;1.13;;;;;;;19.38;69.08;97417.63;5043732;28;20203;-57
2023/09/24 11:25:12;;;;;;;2.00;1.00;;;;;;;19.81;68.22;97421.50;5043364;28;20222;-56
2023/09/24 11:27:46;;;;;;;0.73;0.73;;;;;;;19.97;64.94;97423.22;5042643;28;20317;-56
2023/09/24 11:30:14;;;;;;;1.88;1.35;;;;;;;20.43;64.58;97418.56;5043297;28;20227;-56
2023/09/24 11:32:42;;;;;;;1.35;1.27;;;;;;;20.93;63.26;97425.81;5042928;28;20636;-58